This is the latest recevied weather packets stored in our database for station/object K1WJY. If no packets are shown the sender has not sent any weather packets the latest 10 day(s).
| Time | Temp. | Humidity | Pressure | Rain* | Wind** | Luminosity | Snow |
|---|---|---|---|---|---|---|---|
| 1777896687 | 9.44° C | 60% | 1010 hPa | 0 mm | - | 344 W/m² | - |
| 1777896383 | 10° C | 61% | 1010.1 hPa | 0 mm | - | 323 W/m² | - |
| 1777896082 | 9.44° C | 64% | 1010.1 hPa | 0 mm | - | 312 W/m² | - |
| 1777895780 | 8.89° C | 66% | 1010 hPa | 0 mm | - | 301 W/m² | - |
| 1777895476 | 8.89° C | 66% | 1010.3 hPa | 0 mm | - | 281 W/m² | - |
| 1777895174 | 8.33° C | 65% | 1010.1 hPa | 0 mm | - | 263 W/m² | - |
| 1777894871 | 8.33° C | 68% | 1010.1 hPa | 0 mm | - | 246 W/m² | - |
| 1777894568 | 7.78° C | 69% | 1010.2 hPa | 0 mm | - | 207 W/m² | - |
| 1777894266 | 7.78° C | 70% | 1010.2 hPa | 0 mm | - | 214 W/m² | - |
| 1777893963 | 7.22° C | 71% | 1009.9 hPa | 0 mm | - | 200 W/m² | - |
| 1777893659 | 7.22° C | 73% | 1010 hPa | 0 mm | - | 184 W/m² | - |
| 1777893355 | 6.67° C | 74% | 1009.9 hPa | 0 mm | - | 163 W/m² | - |
| 1777893051 | 6.67° C | 74% | 1010 hPa | 0 mm | - | 150 W/m² | - |
| 1777892749 | 6.11° C | 76% | 1009.9 hPa | 0 mm | - | 144 W/m² | - |
| 1777892444 | 6.11° C | 76% | 1010 hPa | 0 mm | - | 136 W/m² | - |
| 1777892140 | 5.56° C | 77% | 1009.9 hPa | 0 mm | - | 64 W/m² | - |
| 1777891838 | 5.56° C | 78% | 1009.9 hPa | 0 mm | - | 56 W/m² | - |
| 1777891534 | 5.56° C | 77% | 1009.8 hPa | 0 mm | - | 53 W/m² | - |
| 1777891231 | 5° C | 81% | 1009.6 hPa | 0 mm | - | 44 W/m² | - |
| 1777890931 | 4.44° C | 81% | 1009.7 hPa | 0 mm | - | 44 W/m² | - |
| 1777890626 | 4.44° C | 83% | 1009.7 hPa | 0 mm | - | 43 W/m² | - |
| 1777890321 | 3.89° C | 86% | 1009.5 hPa | 0 mm | - | 40 W/m² | - |
| 1777890018 | 3.89° C | 84% | 1009.6 hPa | 0 mm | - | 33 W/m² | - |
| 1777889716 | 3.33° C | 86% | 1009.5 hPa | 0 mm | - | 31 W/m² | - |
| 1777889414 | 2.78° C | 87% | 1009.6 hPa | 0 mm | - | 29 W/m² | - |
* Rain latest hour (hover to see other rain measurements)
** Current wind speed in m/s (hover to see current wind gust speed)